Richville, Utah
Current Conditions -  °F | °C
As of 6:58 AM on Friday 28 Nov 2014 (Local Time) from KHIF Reporting Station
Clear Clear  
Wind Chill: 40°   Ceiling: Unl
Heat Index: 44°   Visibility: 10mi
Dew Point: 22°   Wind: 8mph
Humidity: 40%   Direction: 110°ESE
Pressure: 30.03"   Gusts: NA
Location:  41.0884°N, 111.576°W
Report Text: KHIF 281358Z AUTO 11007KT 10SM CLR 07/M06 A3003 RMK AO2 SLP149 T00691058
Loading
Personal Weather Stations






























Interactive Weather Map New forecast layout! Learn more

10-Day Weather Forecast

Advertisements
Track Severe Weather on mobile